Aérodrome :
LOGIN :

S'inscrire | Disclaimer

   EN    FR    IT 

 










Légende :    VFR   VFR Marginal   IFR   IFR Intensif   IFR Très Intensif
Visi : 
Plafond : 
>= 8 km
>= 3000ft
5 à 8 km
1000 à 3000 ft
1500m à 5 km
500 à 1000 ft
800 à 1500m
200 à 500 ft
< 800m
< 200 ft
Symboles :   Orages  Brouillard  Fortes neiges  Fortes précipitations  Vent > 20 kt
SIGMETs :   Divers  Orages  Givrage  Turbulence  Onde Orograph.  Cendres Volcan.







- Altitude de l'aérodrome : 461 ft
- Code IATA : WIE


ETOU - Wiesbaden Army

DERNIER METAR :
  • 210706Z AUTO 06008KT 9999 BKN017 02/M03 A2996 RMK AO2 BKN V FEW SLP154 $

METARs EXPIRÉS :
  • 210656Z AUTO 06008KT 9999 FEW017 01/M03 A2996 RMK AO2 SLP155 T00141029 $
  • 210556Z AUTO 06007KT 9999 CLR 02/M03 A2993 RMK AO2 SLP144 T00171028 10028 20016 52016 $
  • 210456Z AUTO 05006KT 9999 CLR 02/M03 A2992 RMK AO2 SLP140 T00171034 $

TAF TAF ETOU
Valide du 21 à 04h jusqu'au 22 à 10h UTC


210400Z 2104/2210 07006KT 9999 FEW010 QNH2990INS
BECMG 2115/2116 06006KT 9999 BKN015 QNH2996INS
BECMG 2121/2122 05006KT 9999 BKN010 QNH3003INS
TEMPO 2201/2207 6000 BR TX03/2113Z TNM01/2107Z
Pas de NOTAMs connus pour ce terrain.



MET'MAP, la Météo Aéronautique d'un coup d'oeil ! - Copyright ORBIFLY Décembre 2007 - Disclaimer

ORBIFLY MET'MAP TEAM :

Programmation & Développement : Alexandra Zaïnal
Conception & Développement : Baudouin d'Aumeries
Co-Programmation & Développement : Marc-Olivier Méhu
Soutien technique & logistique : Manuel Goepfert

Contact : metmap@orbifly.com




SOURCES & CREDITS :

   NOAA